sensor_id;sensor_type;location;lat;lon;timestamp;pressure;altitude;pressure_sealevel;temperature;humidity
43480;BME280;29067;35.492;-97.520;2023-10-09T00:00:44;96996.29;;;23.59;26.24
43480;BME280;29067;35.492;-97.520;2023-10-09T00:03:13;96994.52;;;24.28;26.74
43480;BME280;29067;35.492;-97.520;2023-10-09T00:05:40;96995.49;;;25.38;25.93
43480;BME280;29067;35.492;-97.520;2023-10-09T00:08:08;96995.58;;;24.23;26.62
43480;BME280;29067;35.492;-97.520;2023-10-09T00:10:36;96992.84;;;23.77;27.54
43480;BME280;29067;35.492;-97.520;2023-10-09T00:13:05;96995.26;;;24.47;26.70
43480;BME280;29067;35.492;-97.520;2023-10-09T00:15:33;96995.16;;;23.35;27.20
43480;BME280;29067;35.492;-97.520;2023-10-09T00:18:01;96993.91;;;24.01;27.03
43480;BME280;29067;35.492;-97.520;2023-10-09T00:20:29;96997.07;;;23.65;27.63
43480;BME280;29067;35.492;-97.520;2023-10-09T00:22:57;96998.21;;;24.30;28.05
43480;BME280;29067;35.492;-97.520;2023-10-09T00:25:25;96998.99;;;23.53;28.28
43480;BME280;29067;35.492;-97.520;2023-10-09T00:27:52;96996.93;;;23.31;28.48
43480;BME280;29067;35.492;-97.520;2023-10-09T00:30:21;97000.11;;;23.77;28.45
43480;BME280;29067;35.492;-97.520;2023-10-09T00:32:49;96998.91;;;23.86;28.21
43480;BME280;29067;35.492;-97.520;2023-10-09T00:35:18;96999.21;;;24.32;27.95
43480;BME280;29067;35.492;-97.520;2023-10-09T00:37:46;96997.06;;;23.76;28.57
43480;BME280;29067;35.492;-97.520;2023-10-09T00:40:15;96994.91;;;23.24;28.44
43480;BME280;29067;35.492;-97.520;2023-10-09T00:42:43;97000.16;;;22.09;30.12
43480;BME280;29067;35.492;-97.520;2023-10-09T00:45:11;97003.03;;;22.56;29.12
43480;BME280;29067;35.492;-97.520;2023-10-09T00:47:39;97004.71;;;23.37;29.02
43480;BME280;29067;35.492;-97.520;2023-10-09T00:50:09;97001.29;;;23.24;28.87
43480;BME280;29067;35.492;-97.520;2023-10-09T00:52:38;97002.80;;;23.40;28.59
43480;BME280;29067;35.492;-97.520;2023-10-09T00:55:08;97006.84;;;22.88;28.52
43480;BME280;29067;35.492;-97.520;2023-10-09T00:57:38;97006.31;;;22.62;29.50
43480;BME280;29067;35.492;-97.520;2023-10-09T01:00:08;97005.69;;;22.92;28.96
43480;BME280;29067;35.492;-97.520;2023-10-09T01:02:42;97006.22;;;21.90;29.64
43480;BME280;29067;35.492;-97.520;2023-10-09T01:05:10;97005.99;;;22.34;28.58
43480;BME280;29067;35.492;-97.520;2023-10-09T01:07:40;97006.07;;;22.90;28.54
43480;BME280;29067;35.492;-97.520;2023-10-09T01:10:08;97005.32;;;22.65;28.51
43480;BME280;29067;35.492;-97.520;2023-10-09T01:12:36;97006.01;;;23.27;28.57
43480;BME280;29067;35.492;-97.520;2023-10-09T01:15:05;97006.48;;;22.99;28.72
43480;BME280;29067;35.492;-97.520;2023-10-09T01:17:33;97007.51;;;23.00;28.65
43480;BME280;29067;35.492;-97.520;2023-10-09T01:20:02;97010.32;;;22.03;28.75
43480;BME280;29067;35.492;-97.520;2023-10-09T01:22:31;97007.13;;;22.64;28.49
43480;BME280;29067;35.492;-97.520;2023-10-09T01:24:59;97003.11;;;22.60;28.10
43480;BME280;29067;35.492;-97.520;2023-10-09T01:27:28;97002.66;;;22.83;28.31
43480;BME280;29067;35.492;-97.520;2023-10-09T01:29:56;97002.65;;;23.19;28.35
43480;BME280;29067;35.492;-97.520;2023-10-09T01:32:24;97001.81;;;22.81;28.87
43480;BME280;29067;35.492;-97.520;2023-10-09T01:34:52;96999.49;;;22.69;28.68
43480;BME280;29067;35.492;-97.520;2023-10-09T01:37:21;97002.24;;;22.25;29.47
43480;BME280;29067;35.492;-97.520;2023-10-09T01:39:50;96998.46;;;22.91;28.91
43480;BME280;29067;35.492;-97.520;2023-10-09T01:42:19;96996.31;;;22.56;28.96
43480;BME280;29067;35.492;-97.520;2023-10-09T01:44:48;96994.80;;;21.72;29.14
43480;BME280;29067;35.492;-97.520;2023-10-09T01:47:16;96997.88;;;22.59;29.51
43480;BME280;29067;35.492;-97.520;2023-10-09T01:49:44;96997.03;;;22.25;29.17
43480;BME280;29067;35.492;-97.520;2023-10-09T01:52:13;96997.49;;;21.37;29.45
43480;BME280;29067;35.492;-97.520;2023-10-09T01:54:42;96998.94;;;20.99;29.64
43480;BME280;29067;35.492;-97.520;2023-10-09T01:57:10;96996.16;;;21.60;30.09
43480;BME280;29067;35.492;-97.520;2023-10-09T01:59:38;96994.75;;;21.69;29.41
43480;BME280;29067;35.492;-97.520;2023-10-09T02:02:07;96997.04;;;20.71;29.72
43480;BME280;29067;35.492;-97.520;2023-10-09T02:04:34;96994.78;;;21.67;29.64
43480;BME280;29067;35.492;-97.520;2023-10-09T02:07:02;96994.53;;;21.37;29.46
43480;BME280;29067;35.492;-97.520;2023-10-09T02:09:30;96993.60;;;21.73;29.58
43480;BME280;29067;35.492;-97.520;2023-10-09T02:11:57;96994.96;;;20.88;30.02
43480;BME280;29067;35.492;-97.520;2023-10-09T02:14:25;96992.04;;;21.48;29.87
43480;BME280;29067;35.492;-97.520;2023-10-09T02:16:53;97000.57;;;20.81;30.50
43480;BME280;29067;35.492;-97.520;2023-10-09T02:19:21;96997.49;;;21.06;30.11
43480;BME280;29067;35.492;-97.520;2023-10-09T02:21:49;96995.07;;;21.84;29.62
43480;BME280;29067;35.492;-97.520;2023-10-09T02:24:16;96997.97;;;21.57;31.08
43480;BME280;29067;35.492;-97.520;2023-10-09T02:26:44;96999.76;;;21.27;30.01
43480;BME280;29067;35.492;-97.520;2023-10-09T02:29:11;97001.20;;;20.74;30.29
43480;BME280;29067;35.492;-97.520;2023-10-09T02:31:39;97001.13;;;20.98;30.37
43480;BME280;29067;35.492;-97.520;2023-10-09T02:34:08;96998.99;;;20.31;30.86
43480;BME280;29067;35.492;-97.520;2023-10-09T02:36:36;97003.05;;;21.08;30.23
43480;BME280;29067;35.492;-97.520;2023-10-09T02:39:04;97004.82;;;20.87;30.45
43480;BME280;29067;35.492;-97.520;2023-10-09T02:41:32;97002.69;;;21.19;29.48
43480;BME280;29067;35.492;-97.520;2023-10-09T02:44:00;97003.59;;;19.00;31.73
43480;BME280;29067;35.492;-97.520;2023-10-09T02:46:27;97003.97;;;19.86;30.95
43480;BME280;29067;35.492;-97.520;2023-10-09T02:48:56;97001.88;;;20.11;30.67
43480;BME280;29067;35.492;-97.520;2023-10-09T02:51:26;97007.80;;;19.92;30.80
43480;BME280;29067;35.492;-97.520;2023-10-09T02:53:54;97005.19;;;19.14;31.28
43480;BME280;29067;35.492;-97.520;2023-10-09T02:56:22;97006.60;;;19.94;30.60
43480;BME280;29067;35.492;-97.520;2023-10-09T02:58:51;97008.33;;;19.70;30.65
43480;BME280;29067;35.492;-97.520;2023-10-09T03:01:19;97003.86;;;20.33;30.39
43480;BME280;29067;35.492;-97.520;2023-10-09T03:03:47;97008.39;;;20.39;30.08
43480;BME280;29067;35.492;-97.520;2023-10-09T03:06:16;97003.59;;;20.09;29.68
43480;BME280;29067;35.492;-97.520;2023-10-09T03:08:43;97006.38;;;19.50;30.46
43480;BME280;29067;35.492;-97.520;2023-10-09T03:11:11;97005.41;;;19.41;30.87
43480;BME280;29067;35.492;-97.520;2023-10-09T03:13:40;97008.44;;;19.51;30.54
43480;BME280;29067;35.492;-97.520;2023-10-09T03:16:08;97009.50;;;19.94;30.28
43480;BME280;29067;35.492;-97.520;2023-10-09T03:18:37;97008.24;;;19.18;30.86
43480;BME280;29067;35.492;-97.520;2023-10-09T03:21:04;97008.59;;;18.87;31.95
43480;BME280;29067;35.492;-97.520;2023-10-09T03:23:32;97008.71;;;20.15;30.58
43480;BME280;29067;35.492;-97.520;2023-10-09T03:26:00;97007.67;;;20.16;30.16
43480;BME280;29067;35.492;-97.520;2023-10-09T03:28:28;97005.80;;;18.80;30.84
43480;BME280;29067;35.492;-97.520;2023-10-09T03:30:56;97009.06;;;19.24;30.71
43480;BME280;29067;35.492;-97.520;2023-10-09T03:33:24;97009.66;;;20.22;30.50
43480;BME280;29067;35.492;-97.520;2023-10-09T03:35:51;97012.07;;;20.39;29.82
43480;BME280;29067;35.492;-97.520;2023-10-09T03:38:19;97012.26;;;18.99;30.73
43480;BME280;29067;35.492;-97.520;2023-10-09T03:40:47;97012.88;;;20.00;30.23
43480;BME280;29067;35.492;-97.520;2023-10-09T03:43:14;97009.39;;;18.93;31.65
43480;BME280;29067;35.492;-97.520;2023-10-09T03:45:43;97010.84;;;18.31;31.32
43480;BME280;29067;35.492;-97.520;2023-10-09T03:48:10;97009.94;;;19.05;31.11
43480;BME280;29067;35.492;-97.520;2023-10-09T03:50:39;97008.25;;;19.64;30.74
43480;BME280;29067;35.492;-97.520;2023-10-09T03:53:07;97005.17;;;19.74;30.41
43480;BME280;29067;35.492;-97.520;2023-10-09T03:55:36;97003.17;;;20.08;30.44
43480;BME280;29067;35.492;-97.520;2023-10-09T03:58:04;97003.75;;;18.43;31.77
43480;BME280;29067;35.492;-97.520;2023-10-09T04:00:33;96999.15;;;19.97;30.87
43480;BME280;29067;35.492;-97.520;2023-10-09T04:03:01;96999.01;;;19.42;30.87
43480;BME280;29067;35.492;-97.520;2023-10-09T04:05:29;96996.97;;;18.69;31.17
43480;BME280;29067;35.492;-97.520;2023-10-09T04:07:56;97000.43;;;19.20;30.91
43480;BME280;29067;35.492;-97.520;2023-10-09T04:10:24;97000.55;;;19.03;31.03
43480;BME280;29067;35.492;-97.520;2023-10-09T04:12:53;97000.04;;;19.29;30.77
43480;BME280;29067;35.492;-97.520;2023-10-09T04:15:20;97000.85;;;17.97;31.69
43480;BME280;29067;35.492;-97.520;2023-10-09T04:17:48;96997.97;;;19.57;30.69
43480;BME280;29067;35.492;-97.520;2023-10-09T04:20:16;96997.03;;;19.59;30.58
43480;BME280;29067;35.492;-97.520;2023-10-09T04:22:43;96998.27;;;19.62;30.38
43480;BME280;29067;35.492;-97.520;2023-10-09T04:25:11;97000.34;;;19.82;30.43
43480;BME280;29067;35.492;-97.520;2023-10-09T04:27:38;96997.72;;;19.68;30.25
43480;BME280;29067;35.492;-97.520;2023-10-09T04:30:07;96994.81;;;18.65;31.25
43480;BME280;29067;35.492;-97.520;2023-10-09T04:32:35;97002.54;;;18.49;31.55
43480;BME280;29067;35.492;-97.520;2023-10-09T04:35:04;96997.62;;;19.16;31.08
43480;BME280;29067;35.492;-97.520;2023-10-09T04:37:31;96997.36;;;18.42;31.13
43480;BME280;29067;35.492;-97.520;2023-10-09T04:39:59;96995.59;;;17.57;32.01
43480;BME280;29067;35.492;-97.520;2023-10-09T04:42:27;96992.99;;;18.90;31.45
43480;BME280;29067;35.492;-97.520;2023-10-09T04:44:54;96993.04;;;17.77;31.94
43480;BME280;29067;35.492;-97.520;2023-10-09T04:47:22;96993.13;;;18.13;31.62
43480;BME280;29067;35.492;-97.520;2023-10-09T04:49:50;96989.62;;;18.20;32.12
43480;BME280;29067;35.492;-97.520;2023-10-09T04:52:18;96987.62;;;18.12;32.47
43480;BME280;29067;35.492;-97.520;2023-10-09T04:54:47;96990.54;;;17.96;32.32
43480;BME280;29067;35.492;-97.520;2023-10-09T04:57:15;96983.93;;;18.79;31.54
43480;BME280;29067;35.492;-97.520;2023-10-09T04:59:43;96980.97;;;18.77;31.59
43480;BME280;29067;35.492;-97.520;2023-10-09T05:02:10;96978.32;;;19.26;30.78
43480;BME280;29067;35.492;-97.520;2023-10-09T05:04:38;96977.80;;;17.70;32.25
43480;BME280;29067;35.492;-97.520;2023-10-09T05:07:06;96969.20;;;18.31;31.63
43480;BME280;29067;35.492;-97.520;2023-10-09T05:09:35;96971.52;;;18.43;32.15
43480;BME280;29067;35.492;-97.520;2023-10-09T05:12:03;96968.04;;;17.86;32.29
43480;BME280;29067;35.492;-97.520;2023-10-09T05:14:31;96964.37;;;18.20;32.19
43480;BME280;29067;35.492;-97.520;2023-10-09T05:16:59;96965.84;;;18.44;32.36
43480;BME280;29067;35.492;-97.520;2023-10-09T05:19:27;96963.35;;;18.48;32.06
43480;BME280;29067;35.492;-97.520;2023-10-09T05:21:55;96958.01;;;18.08;32.19
43480;BME280;29067;35.492;-97.520;2023-10-09T05:24:23;96959.43;;;17.19;33.12
43480;BME280;29067;35.492;-97.520;2023-10-09T05:26:51;96958.19;;;16.97;33.47
43480;BME280;29067;35.492;-97.520;2023-10-09T05:29:21;96952.90;;;17.76;32.96
43480;BME280;29067;35.492;-97.520;2023-10-09T05:31:49;96951.73;;;17.46;33.21
43480;BME280;29067;35.492;-97.520;2023-10-09T05:34:17;96947.72;;;18.36;32.27
43480;BME280;29067;35.492;-97.520;2023-10-09T05:36:45;96947.83;;;17.56;33.13
43480;BME280;29067;35.492;-97.520;2023-10-09T05:39:13;96949.79;;;17.33;33.53
43480;BME280;29067;35.492;-97.520;2023-10-09T05:41:41;96948.50;;;17.26;33.36
43480;BME280;29067;35.492;-97.520;2023-10-09T05:44:09;96945.91;;;17.10;33.49
43480;BME280;29067;35.492;-97.520;2023-10-09T05:46:37;96941.27;;;17.50;33.23
43480;BME280;29067;35.492;-97.520;2023-10-09T05:49:05;96940.37;;;17.37;33.43
43480;BME280;29067;35.492;-97.520;2023-10-09T05:51:32;96937.52;;;17.68;33.19
43480;BME280;29067;35.492;-97.520;2023-10-09T05:54:10;96939.94;;;17.44;33.51
43480;BME280;29067;35.492;-97.520;2023-10-09T05:56:38;96935.44;;;18.11;33.12
43480;BME280;29067;35.492;-97.520;2023-10-09T05:59:06;96933.74;;;18.59;32.57
43480;BME280;29067;35.492;-97.520;2023-10-09T06:01:33;96931.92;;;18.72;32.85
43480;BME280;29067;35.492;-97.520;2023-10-09T06:04:01;96934.83;;;18.32;32.51
43480;BME280;29067;35.492;-97.520;2023-10-09T06:06:29;96933.35;;;17.81;32.69
43480;BME280;29067;35.492;-97.520;2023-10-09T06:08:56;96934.17;;;18.08;32.59
43480;BME280;29067;35.492;-97.520;2023-10-09T06:11:24;96929.27;;;18.17;33.06
43480;BME280;29067;35.492;-97.520;2023-10-09T06:13:52;96932.68;;;17.72;33.18
43480;BME280;29067;35.492;-97.520;2023-10-09T06:16:20;96930.09;;;17.53;33.43
43480;BME280;29067;35.492;-97.520;2023-10-09T06:18:48;96926.17;;;17.75;33.11
43480;BME280;29067;35.492;-97.520;2023-10-09T06:21:15;96926.72;;;17.47;33.61
43480;BME280;29067;35.492;-97.520;2023-10-09T06:23:43;96921.84;;;17.68;33.13
43480;BME280;29067;35.492;-97.520;2023-10-09T06:26:11;96920.45;;;17.52;33.25
43480;BME280;29067;35.492;-97.520;2023-10-09T06:28:38;96920.01;;;17.80;33.89
43480;BME280;29067;35.492;-97.520;2023-10-09T06:31:06;96919.17;;;17.17;33.81
43480;BME280;29067;35.492;-97.520;2023-10-09T06:33:34;96915.89;;;17.69;33.28
43480;BME280;29067;35.492;-97.520;2023-10-09T06:36:02;96915.08;;;17.37;33.77
43480;BME280;29067;35.492;-97.520;2023-10-09T06:38:29;96913.75;;;17.64;33.24
43480;BME280;29067;35.492;-97.520;2023-10-09T06:40:57;96912.75;;;17.49;33.76
43480;BME280;29067;35.492;-97.520;2023-10-09T06:43:25;96908.65;;;17.95;33.29
43480;BME280;29067;35.492;-97.520;2023-10-09T06:45:54;96908.90;;;17.75;33.64
43480;BME280;29067;35.492;-97.520;2023-10-09T06:48:22;96911.60;;;16.86;33.94
43480;BME280;29067;35.492;-97.520;2023-10-09T06:50:51;96908.95;;;16.07;34.79
43480;BME280;29067;35.492;-97.520;2023-10-09T06:53:18;96906.78;;;17.20;34.14
43480;BME280;29067;35.492;-97.520;2023-10-09T06:55:47;96907.58;;;16.36;34.98
43480;BME280;29067;35.492;-97.520;2023-10-09T06:58:15;96908.73;;;17.52;34.99
43480;BME280;29067;35.492;-97.520;2023-10-09T07:00:43;96910.60;;;17.86;34.32
43480;BME280;29067;35.492;-97.520;2023-10-09T07:03:11;96909.11;;;16.86;34.56
43480;BME280;29067;35.492;-97.520;2023-10-09T07:05:39;96908.56;;;15.63;35.34
43480;BME280;29067;35.492;-97.520;2023-10-09T07:08:06;96906.60;;;17.05;34.72
43480;BME280;29067;35.492;-97.520;2023-10-09T07:10:35;96903.18;;;17.00;35.17
43480;BME280;29067;35.492;-97.520;2023-10-09T07:13:04;96902.84;;;17.22;35.06
43480;BME280;29067;35.492;-97.520;2023-10-09T07:15:31;96904.59;;;16.51;35.41
43480;BME280;29067;35.492;-97.520;2023-10-09T07:17:59;96903.27;;;17.21;34.83
43480;BME280;29067;35.492;-97.520;2023-10-09T07:20:27;96900.53;;;16.97;35.03
43480;BME280;29067;35.492;-97.520;2023-10-09T07:22:55;96900.34;;;16.78;35.42
43480;BME280;29067;35.492;-97.520;2023-10-09T07:25:23;96902.91;;;16.99;35.29
43480;BME280;29067;35.492;-97.520;2023-10-09T07:27:51;96899.47;;;16.94;35.33
43480;BME280;29067;35.492;-97.520;2023-10-09T07:30:20;96895.03;;;17.06;35.20
43480;BME280;29067;35.492;-97.520;2023-10-09T07:32:48;96896.94;;;16.86;35.12
43480;BME280;29067;35.492;-97.520;2023-10-09T07:35:16;96891.94;;;16.48;35.19
43480;BME280;29067;35.492;-97.520;2023-10-09T07:37:43;96887.46;;;16.64;35.25
43480;BME280;29067;35.492;-97.520;2023-10-09T07:40:12;96883.37;;;17.61;34.56
43480;BME280;29067;35.492;-97.520;2023-10-09T07:42:40;96877.44;;;16.96;35.09
43480;BME280;29067;35.492;-97.520;2023-10-09T07:45:08;96877.84;;;16.87;35.18
43480;BME280;29067;35.492;-97.520;2023-10-09T07:47:37;96876.01;;;16.99;35.30
43480;BME280;29067;35.492;-97.520;2023-10-09T07:50:06;96867.38;;;17.61;34.68
43480;BME280;29067;35.492;-97.520;2023-10-09T07:52:34;96868.96;;;17.34;34.97
43480;BME280;29067;35.492;-97.520;2023-10-09T07:55:02;96867.55;;;16.01;36.09
43480;BME280;29067;35.492;-97.520;2023-10-09T07:57:31;96862.99;;;16.69;35.35
43480;BME280;29067;35.492;-97.520;2023-10-09T07:59:59;96857.62;;;16.94;35.04
43480;BME280;29067;35.492;-97.520;2023-10-09T08:02:28;96851.60;;;16.79;34.74
43480;BME280;29067;35.492;-97.520;2023-10-09T08:04:56;96852.50;;;17.18;35.35
43480;BME280;29067;35.492;-97.520;2023-10-09T08:07:23;96849.57;;;16.51;35.30
43480;BME280;29067;35.492;-97.520;2023-10-09T08:09:51;96842.47;;;17.78;34.90
43480;BME280;29067;35.492;-97.520;2023-10-09T08:12:19;96847.12;;;16.10;35.60
43480;BME280;29067;35.492;-97.520;2023-10-09T08:14:46;96843.85;;;16.49;35.27
43480;BME280;29067;35.492;-97.520;2023-10-09T08:17:14;96840.69;;;16.52;36.01
43480;BME280;29067;35.492;-97.520;2023-10-09T08:19:46;96838.37;;;17.02;35.85
43480;BME280;29067;35.492;-97.520;2023-10-09T08:22:15;96832.27;;;17.29;35.28
43480;BME280;29067;35.492;-97.520;2023-10-09T08:24:43;96831.41;;;16.01;36.07
43480;BME280;29067;35.492;-97.520;2023-10-09T08:27:11;96829.87;;;15.92;36.42
43480;BME280;29067;35.492;-97.520;2023-10-09T08:29:39;96827.70;;;15.90;36.13
43480;BME280;29067;35.492;-97.520;2023-10-09T08:32:07;96826.09;;;16.16;36.56
43480;BME280;29067;35.492;-97.520;2023-10-09T08:34:34;96825.31;;;16.59;35.99
43480;BME280;29067;35.492;-97.520;2023-10-09T08:37:02;96823.30;;;16.50;36.36
43480;BME280;29067;35.492;-97.520;2023-10-09T08:39:30;96823.63;;;15.74;36.59
43480;BME280;29067;35.492;-97.520;2023-10-09T08:41:57;96818.06;;;16.72;36.33
43480;BME280;29067;35.492;-97.520;2023-10-09T08:44:26;96815.08;;;15.71;36.98
43480;BME280;29067;35.492;-97.520;2023-10-09T08:46:55;96813.58;;;15.92;36.95
43480;BME280;29067;35.492;-97.520;2023-10-09T08:49:24;96812.05;;;15.60;36.82
43480;BME280;29067;35.492;-97.520;2023-10-09T08:51:54;96809.19;;;16.73;36.61
43480;BME280;29067;35.492;-97.520;2023-10-09T08:54:22;96805.58;;;16.17;36.38
43480;BME280;29067;35.492;-97.520;2023-10-09T08:56:50;96805.66;;;15.95;36.79
43480;BME280;29067;35.492;-97.520;2023-10-09T08:59:19;96804.55;;;16.09;37.13
43480;BME280;29067;35.492;-97.520;2023-10-09T09:01:48;96803.17;;;15.83;37.29
43480;BME280;29067;35.492;-97.520;2023-10-09T09:04:48;96804.69;;;15.44;37.45
43480;BME280;29067;35.492;-97.520;2023-10-09T09:07:32;96801.03;;;16.58;36.68
43480;BME280;29067;35.492;-97.520;2023-10-09T09:10:01;96802.82;;;15.05;38.00
43480;BME280;29067;35.492;-97.520;2023-10-09T09:12:28;96799.59;;;16.25;37.00
43480;BME280;29067;35.492;-97.520;2023-10-09T09:14:56;96800.51;;;15.64;37.58
43480;BME280;29067;35.492;-97.520;2023-10-09T09:17:30;96798.99;;;15.29;37.76
43480;BME280;29067;35.492;-97.520;2023-10-09T09:19:59;96797.91;;;15.55;37.65
43480;BME280;29067;35.492;-97.520;2023-10-09T09:22:52;96800.44;;;15.99;37.61
43480;BME280;29067;35.492;-97.520;2023-10-09T09:25:20;96800.05;;;15.53;37.69
43480;BME280;29067;35.492;-97.520;2023-10-09T09:27:48;96799.23;;;15.37;37.73
43480;BME280;29067;35.492;-97.520;2023-10-09T09:30:24;96802.52;;;14.98;38.94
43480;BME280;29067;35.492;-97.520;2023-10-09T09:32:52;96803.58;;;15.20;39.33
43480;BME280;29067;35.492;-97.520;2023-10-09T09:35:20;96806.48;;;14.61;39.85
43480;BME280;29067;35.492;-97.520;2023-10-09T09:37:53;96798.37;;;15.33;39.46
43480;BME280;29067;35.492;-97.520;2023-10-09T09:40:22;96804.93;;;14.38;40.05
43480;BME280;29067;35.492;-97.520;2023-10-09T09:42:51;96798.71;;;15.01;38.99
43480;BME280;29067;35.492;-97.520;2023-10-09T09:45:20;96804.56;;;14.34;40.56
43480;BME280;29067;35.492;-97.520;2023-10-09T09:47:50;96805.44;;;14.30;40.46
43480;BME280;29067;35.492;-97.520;2023-10-09T09:50:20;96805.17;;;13.73;41.01
43480;BME280;29067;35.492;-97.520;2023-10-09T09:52:49;96804.30;;;13.88;40.91
43480;BME280;29067;35.492;-97.520;2023-10-09T09:55:17;96805.20;;;13.55;41.55
43480;BME280;29067;35.492;-97.520;2023-10-09T09:57:45;96805.71;;;13.70;41.11
43480;BME280;29067;35.492;-97.520;2023-10-09T10:00:18;96805.24;;;14.28;41.58
43480;BME280;29067;35.492;-97.520;2023-10-09T10:02:47;96808.40;;;14.71;40.50
43480;BME280;29067;35.492;-97.520;2023-10-09T10:05:16;96805.27;;;14.67;40.59
43480;BME280;29067;35.492;-97.520;2023-10-09T10:07:45;96804.18;;;15.21;40.68
43480;BME280;29067;35.492;-97.520;2023-10-09T10:10:46;96800.96;;;16.02;39.65
43480;BME280;29067;35.492;-97.520;2023-10-09T10:13:14;96805.91;;;14.53;41.13
43480;BME280;29067;35.492;-97.520;2023-10-09T10:15:59;96806.62;;;14.07;41.57
43480;BME280;29067;35.492;-97.520;2023-10-09T10:18:32;96809.98;;;13.87;41.85
43480;BME280;29067;35.492;-97.520;2023-10-09T10:21:11;96808.66;;;14.58;41.31
43480;BME280;29067;35.492;-97.520;2023-10-09T10:23:40;96806.08;;;15.09;40.96
43480;BME280;29067;35.492;-97.520;2023-10-09T10:26:18;96808.48;;;13.71;41.76
43480;BME280;29067;35.492;-97.520;2023-10-09T10:29:14;96803.35;;;15.41;40.45
43480;BME280;29067;35.492;-97.520;2023-10-09T10:31:59;96801.99;;;14.39;40.17
43480;BME280;29067;35.492;-97.520;2023-10-09T10:34:52;96806.21;;;13.28;41.79
43480;BME280;29067;35.492;-97.520;2023-10-09T10:37:20;96800.18;;;14.99;40.04
43480;BME280;29067;35.492;-97.520;2023-10-09T10:39:51;96803.77;;;14.69;40.22
43480;BME280;29067;35.492;-97.520;2023-10-09T10:42:19;96805.76;;;14.66;40.62
43480;BME280;29067;35.492;-97.520;2023-10-09T10:44:47;96807.00;;;14.62;40.77
43480;BME280;29067;35.492;-97.520;2023-10-09T10:47:15;96807.74;;;14.87;40.11
43480;BME280;29067;35.492;-97.520;2023-10-09T10:49:44;96813.02;;;14.36;41.09
43480;BME280;29067;35.492;-97.520;2023-10-09T10:52:21;96811.52;;;13.41;41.83
43480;BME280;29067;35.492;-97.520;2023-10-09T10:54:49;96810.66;;;14.39;41.27
43480;BME280;29067;35.492;-97.520;2023-10-09T10:57:19;96811.66;;;14.10;40.86
43480;BME280;29067;35.492;-97.520;2023-10-09T10:59:47;96812.77;;;14.20;40.94
43480;BME280;29067;35.492;-97.520;2023-10-09T11:03:00;96813.64;;;14.70;40.61
43480;BME280;29067;35.492;-97.520;2023-10-09T11:05:29;96814.91;;;14.58;40.42
43480;BME280;29067;35.492;-97.520;2023-10-09T11:07:58;96812.30;;;15.55;39.78
43480;BME280;29067;35.492;-97.520;2023-10-09T11:10:26;96815.05;;;15.99;39.47
43480;BME280;29067;35.492;-97.520;2023-10-09T11:12:54;96820.50;;;15.28;40.32
43480;BME280;29067;35.492;-97.520;2023-10-09T11:15:32;96821.75;;;15.43;40.87
43480;BME280;29067;35.492;-97.520;2023-10-09T11:18:01;96821.79;;;16.65;39.20
43480;BME280;29067;35.492;-97.520;2023-10-09T11:20:29;96827.65;;;15.00;40.70
43480;BME280;29067;35.492;-97.520;2023-10-09T11:22:57;96824.61;;;15.93;40.05
43480;BME280;29067;35.492;-97.520;2023-10-09T11:25:24;96824.91;;;15.52;40.31
43480;BME280;29067;35.492;-97.520;2023-10-09T11:27:52;96827.19;;;15.80;41.05
43480;BME280;29067;35.492;-97.520;2023-10-09T11:30:31;96831.03;;;14.45;41.36
43480;BME280;29067;35.492;-97.520;2023-10-09T11:33:07;96825.36;;;16.44;39.97
43480;BME280;29067;35.492;-97.520;2023-10-09T11:35:35;96831.25;;;14.97;41.60
43480;BME280;29067;35.492;-97.520;2023-10-09T11:38:03;96835.06;;;13.34;42.69
43480;BME280;29067;35.492;-97.520;2023-10-09T11:40:33;96830.07;;;14.44;42.21
43480;BME280;29067;35.492;-97.520;2023-10-09T11:43:02;96830.88;;;14.12;42.76
43480;BME280;29067;35.492;-97.520;2023-10-09T11:45:30;96827.80;;;15.03;42.02
43480;BME280;29067;35.492;-97.520;2023-10-09T11:48:06;96821.79;;;16.30;40.85
43480;BME280;29067;35.492;-97.520;2023-10-09T11:50:44;96826.16;;;15.53;41.39
43480;BME280;29067;35.492;-97.520;2023-10-09T11:53:12;96822.42;;;15.70;41.85
43480;BME280;29067;35.492;-97.520;2023-10-09T11:55:40;96821.04;;;16.16;40.93
43480;BME280;29067;35.492;-97.520;2023-10-09T11:58:08;96827.93;;;14.11;43.33
43480;BME280;29067;35.492;-97.520;2023-10-09T12:00:35;96831.78;;;13.61;45.74
43480;BME280;29067;35.492;-97.520;2023-10-09T12:03:04;96829.66;;;14.97;44.26
43480;BME280;29067;35.492;-97.520;2023-10-09T12:05:32;96829.74;;;14.42;44.32
43480;BME280;29067;35.492;-97.520;2023-10-09T12:07:59;96831.62;;;13.54;44.69
43480;BME280;29067;35.492;-97.520;2023-10-09T12:10:27;96830.06;;;14.69;43.73
43480;BME280;29067;35.492;-97.520;2023-10-09T12:12:56;96830.98;;;14.50;43.80
43480;BME280;29067;35.492;-97.520;2023-10-09T12:15:24;96831.76;;;14.50;43.24
43480;BME280;29067;35.492;-97.520;2023-10-09T12:17:53;96831.42;;;15.59;42.40
43480;BME280;29067;35.492;-97.520;2023-10-09T12:20:21;96832.46;;;14.15;43.74
43480;BME280;29067;35.492;-97.520;2023-10-09T12:22:48;96836.21;;;13.59;43.40
43480;BME280;29067;35.492;-97.520;2023-10-09T12:25:16;96834.69;;;14.13;43.19
43480;BME280;29067;35.492;-97.520;2023-10-09T12:27:44;96833.97;;;15.35;42.90
43480;BME280;29067;35.492;-97.520;2023-10-09T12:30:12;96835.69;;;14.68;42.86
43480;BME280;29067;35.492;-97.520;2023-10-09T12:32:40;96837.62;;;15.28;43.16
43480;BME280;29067;35.492;-97.520;2023-10-09T12:35:08;96836.38;;;14.84;43.24
43480;BME280;29067;35.492;-97.520;2023-10-09T12:37:37;96839.06;;;14.52;42.99
43480;BME280;29067;35.492;-97.520;2023-10-09T12:40:05;96837.43;;;15.04;42.05
43480;BME280;29067;35.492;-97.520;2023-10-09T12:42:34;96839.32;;;15.21;42.35
43480;BME280;29067;35.492;-97.520;2023-10-09T12:45:02;96843.87;;;13.91;43.57
43480;BME280;29067;35.492;-97.520;2023-10-09T12:47:29;96842.26;;;14.58;43.00
43480;BME280;29067;35.492;-97.520;2023-10-09T12:49:57;96844.91;;;13.70;43.75